Time;durP1;ratioP1;P1;durP2;ratioP2;P2;SDS_P1;SDS_P2;PMS_P1;PMS_P2;Temp;Humidity;BMP_temperature;BMP_pressure;BME280_temperature;BME280_humidity;BME280_pressure;Samples;Min_cycle;Max_cycle;Signal;HPM_P1;HPM_P2
2021/11/28 00:01:40;0.00;0.00;0.62;0.00;0.00;0.62;1.40;0.80;;;21.10;27.40;;;;;;2242058;61;20385;-69
2021/11/28 00:04:26;0.00;0.00;0.62;0.00;0.00;0.62;1.57;1.00;;;21.10;27.40;;;;;;2241917;62;20390;-69
2021/11/28 00:13:04;0.00;0.00;0.62;0.00;0.00;0.62;1.97;1.10;;;21.10;27.40;;;;;;2241586;62;20650;-69
2021/11/28 00:15:49;0.00;0.00;0.62;0.00;0.00;0.62;1.30;0.80;;;21.10;27.40;;;;;;2242189;62;20391;-69
2021/11/28 00:18:34;0.00;0.00;0.62;0.00;0.00;0.62;1.40;0.80;;;21.10;27.40;;;;;;2241946;62;20788;-69
2021/11/28 00:21:20;0.00;0.00;0.62;0.00;0.00;0.62;1.30;0.80;;;21.10;27.40;;;;;;2241614;61;20386;-66
2021/11/28 00:24:05;0.00;0.00;0.62;0.00;0.00;0.62;1.40;1.00;;;21.10;27.40;;;;;;2242032;62;20370;-67
2021/11/28 00:26:51;0.00;0.00;0.62;0.00;0.00;0.62;1.63;1.10;;;21.10;27.40;;;;;;2241297;62;21100;-66
2021/11/28 00:29:37;0.00;0.00;0.62;0.00;0.00;0.62;1.50;0.93;;;21.10;27.40;;;;;;2241906;62;20581;-69
2021/11/28 00:32:22;0.00;0.00;0.62;0.00;0.00;0.62;1.20;0.70;;;21.10;27.40;;;;;;2241222;61;20441;-67
2021/11/28 00:35:09;0.00;0.00;0.62;0.00;0.00;0.62;3.20;0.97;;;21.20;27.40;;;;;;2473912;54;20362;-71
2021/11/28 00:37:56;0.00;0.00;0.62;0.00;0.00;0.62;1.50;0.90;;;21.10;27.40;;;;;;2241871;62;20355;-69
2021/11/28 00:40:41;0.00;0.00;0.62;0.00;0.00;0.62;1.57;0.90;;;21.10;27.40;;;;;;2242039;61;20390;-71
2021/11/28 00:43:25;0.00;0.00;0.62;0.00;0.00;0.62;1.60;0.90;;;21.10;27.40;;;;;;2241498;62;20440;-68
2021/11/28 00:46:10;0.00;0.00;0.62;0.00;0.00;0.62;1.30;0.80;;;21.10;27.40;;;;;;2241716;62;20426;-70
2021/11/28 00:48:56;0.00;0.00;0.62;0.00;0.00;0.62;1.57;0.90;;;21.10;27.40;;;;;;2241224;62;20714;-70
2021/11/28 00:54:33;0.00;0.00;0.62;0.00;0.00;0.62;1.50;0.80;;;21.10;27.40;;;;;;2248298;61;20401;-70
2021/11/28 00:57:20;0.00;0.00;0.62;0.00;0.00;0.62;1.60;0.87;;;21.20;27.40;;;;;;2245106;61;20602;-72
2021/11/28 01:00:08;0.00;0.00;0.62;0.00;0.00;0.62;1.43;0.80;;;21.10;27.40;;;;;;2245365;61;20357;-70
2021/11/28 01:02:54;0.00;0.00;0.62;0.00;0.00;0.62;1.23;0.70;;;21.20;27.40;;;;;;2248094;61;20406;-70
2021/11/28 01:05:39;0.00;0.00;0.62;0.00;0.00;0.62;1.50;0.90;;;21.20;27.40;;;;;;2245584;61;20608;-72
2021/11/28 01:08:24;0.00;0.00;0.62;0.00;0.00;0.62;1.53;0.90;;;21.10;27.40;;;;;;2245610;61;20386;-71
2021/11/28 01:11:10;0.00;0.00;0.62;0.00;0.00;0.62;1.30;0.80;;;21.10;27.40;;;;;;2245243;61;20429;-70
2021/11/28 01:13:56;0.00;0.00;0.62;0.00;0.00;0.62;1.57;0.80;;;21.20;27.40;;;;;;2245834;61;20471;-69
2021/11/28 01:16:44;0.00;0.00;0.62;0.00;0.00;0.62;1.87;1.20;;;21.10;27.40;;;;;;2245737;61;20362;-71
2021/11/28 01:19:30;0.00;0.00;0.62;0.00;0.00;0.62;1.47;0.80;;;21.10;27.40;;;;;;2245186;61;20410;-70
2021/11/28 01:22:16;0.00;0.00;0.62;0.00;0.00;0.62;2.20;1.00;;;21.10;27.40;;;;;;2242894;61;20433;-66
2021/11/28 01:25:03;0.00;0.00;0.62;0.00;0.00;0.62;2.33;1.00;;;21.10;27.40;;;;;;2245550;61;20350;-67
2021/11/28 01:27:50;0.00;0.00;0.62;0.00;0.00;0.62;1.40;1.07;;;21.10;27.40;;;;;;2245601;61;20616;-68
2021/11/28 01:30:35;0.00;0.00;0.62;0.00;0.00;0.62;1.60;1.07;;;21.10;27.40;;;;;;2245566;61;20397;-67
2021/11/28 01:33:20;0.00;0.00;0.62;0.00;0.00;0.62;1.40;0.80;;;21.10;27.40;;;;;;2244959;61;20369;-67
2021/11/28 01:36:05;0.00;0.00;0.62;0.00;0.00;0.62;2.03;0.90;;;21.10;27.40;;;;;;2246200;61;20360;-67
2021/11/28 01:38:50;0.00;0.00;0.62;0.00;0.00;0.62;1.60;0.93;;;21.10;27.40;;;;;;2245306;61;20361;-67
2021/11/28 01:41:36;0.00;0.00;0.62;0.00;0.00;0.62;1.90;0.80;;;21.10;27.90;;;;;;2245323;61;20441;-67
2021/11/28 01:44:22;0.00;0.00;0.62;0.00;0.00;0.62;1.40;0.97;;;21.10;27.40;;;;;;2245641;61;20466;-67
2021/11/28 01:47:07;0.00;0.00;0.62;0.00;0.00;0.62;1.47;0.97;;;21.10;27.40;;;;;;2245438;61;20384;-70
2021/11/28 01:49:52;0.00;0.00;0.62;0.00;0.00;0.62;1.60;0.97;;;21.10;27.40;;;;;;2244853;61;20578;-70
2021/11/28 01:52:37;0.00;0.00;0.62;0.00;0.00;0.62;1.47;0.90;;;21.10;27.40;;;;;;2245536;61;20430;-70
2021/11/28 01:55:26;0.00;0.00;0.62;0.00;0.00;0.62;1.70;1.30;;;21.10;27.40;;;;;;2245209;61;20400;-68
2021/11/28 01:58:12;0.00;0.00;0.62;0.00;0.00;0.62;2.57;1.83;;;21.10;27.40;;;;;;2245629;61;20421;-69
2021/11/28 02:01:04;0.00;0.00;0.62;0.00;0.00;0.62;3.07;2.17;;;21.10;27.40;;;;;;2245034;61;20780;-69
2021/11/28 02:03:52;0.00;0.00;0.62;0.00;0.00;0.62;3.20;2.17;;;21.10;27.30;;;;;;2244760;61;20366;-69
2021/11/28 02:06:37;0.00;0.00;0.62;0.00;0.00;0.62;3.20;2.50;;;21.00;27.00;;;;;;2245351;61;20361;-69
2021/11/28 02:09:22;0.00;0.00;0.62;0.00;0.00;0.62;5.67;2.50;;;21.00;26.90;;;;;;2245162;61;20384;-68
2021/11/28 02:12:08;0.00;0.00;0.62;0.00;0.00;0.62;3.80;2.63;;;21.00;26.80;;;;;;2245254;61;20462;-68
2021/11/28 02:14:53;0.00;0.00;0.62;0.00;0.00;0.62;3.20;2.37;;;21.00;26.80;;;;;;2245244;61;20583;-68
2021/11/28 02:17:39;0.00;0.00;0.62;0.00;0.00;0.62;5.57;2.60;;;20.90;26.70;;;;;;2244886;61;20396;-69
2021/11/28 02:20:28;0.00;0.00;0.62;0.00;0.00;0.62;2.67;2.40;;;20.90;26.70;;;;;;2245530;61;20373;-68
2021/11/28 02:23:15;0.00;0.00;0.62;0.00;0.00;0.62;2.70;2.20;;;20.90;27.10;;;;;;2245334;61;20373;-69
2021/11/28 02:26:06;0.00;0.00;0.62;0.00;0.00;0.62;4.47;2.63;;;20.90;26.60;;;;;;2244822;61;20738;-69
2021/11/28 02:28:52;0.00;0.00;0.62;0.00;0.00;0.62;7.77;2.67;;;20.80;26.40;;;;;;2245503;61;20417;-68
2021/11/28 02:31:38;0.00;0.00;0.62;0.00;0.00;0.62;3.90;2.70;;;20.80;26.40;;;;;;2245198;61;20778;-68
2021/11/28 02:34:23;0.00;0.00;0.62;0.00;0.00;0.62;4.10;2.83;;;20.80;26.30;;;;;;2244863;61;20369;-70
2021/11/28 02:37:08;0.00;0.00;0.62;0.00;0.00;0.62;4.80;2.83;;;20.80;26.30;;;;;;2245230;61;20370;-69
2021/11/28 02:39:58;0.00;0.00;0.62;0.00;0.00;0.62;3.07;2.70;;;20.80;26.20;;;;;;2244431;61;20733;-69
2021/11/28 02:42:43;0.00;0.00;0.62;0.00;0.00;0.62;4.03;2.70;;;20.70;26.10;;;;;;2245290;61;20380;-69
2021/11/28 02:45:30;0.00;0.00;0.62;0.00;0.00;0.62;4.43;3.10;;;20.70;26.70;;;;;;2245057;61;20365;-69
2021/11/28 02:48:16;0.00;0.00;0.62;0.00;0.00;0.62;4.23;2.47;;;20.70;26.10;;;;;;2244647;61;20413;-70
2021/11/28 02:51:02;0.00;0.00;0.62;0.00;0.00;0.62;2.93;2.50;;;20.70;26.10;;;;;;2245111;61;20769;-69
2021/11/28 02:53:48;0.00;0.00;0.62;0.00;0.00;0.62;4.00;2.73;;;20.60;26.00;;;;;;2245391;61;20593;-69
2021/11/28 02:56:35;0.00;0.00;0.62;0.00;0.00;0.62;4.30;2.40;;;20.60;26.00;;;;;;2244716;61;20385;-69
2021/11/28 02:59:20;0.00;0.00;0.62;0.00;0.00;0.62;3.43;2.70;;;20.60;26.00;;;;;;2245440;61;20370;-69
2021/11/28 03:02:06;0.00;0.00;0.62;0.00;0.00;0.62;3.17;2.70;;;20.60;25.90;;;;;;2244487;61;20385;-69
2021/11/28 03:05:05;0.00;0.00;0.62;0.00;0.00;0.62;3.43;2.30;;;20.50;25.80;;;;;;2245296;61;20365;-69
2021/11/28 03:07:50;0.00;0.00;0.62;0.00;0.00;0.62;3.60;2.80;;;20.50;25.80;;;;;;2245224;61;20469;-69
2021/11/28 03:10:38;0.00;0.00;0.62;0.00;0.00;0.62;3.70;2.77;;;20.40;25.60;;;;;;2244520;61;20429;-69
2021/11/28 03:13:28;0.00;0.00;0.62;0.00;0.00;0.62;2.73;2.40;;;20.40;25.40;;;;;;2245493;61;20405;-69
2021/11/28 03:16:16;0.00;0.00;0.62;0.00;0.00;0.62;4.23;3.10;;;20.30;25.20;;;;;;2245681;61;20378;-69
2021/11/28 03:19:01;0.00;0.00;0.62;0.00;0.00;0.62;5.03;3.10;;;20.30;25.20;;;;;;2244488;61;20397;-69
2021/11/28 03:21:46;0.00;0.00;0.62;0.00;0.00;0.62;3.43;2.30;;;20.20;25.00;;;;;;2245081;61;20499;-69
2021/11/28 03:24:31;0.00;0.00;0.62;0.00;0.00;0.62;3.03;2.40;;;20.20;25.10;;;;;;2244841;61;20356;-69
2021/11/28 03:27:16;0.00;0.00;0.62;0.00;0.00;0.62;3.30;2.83;;;20.10;25.20;;;;;;2245752;61;20369;-69
2021/11/28 03:30:03;0.00;0.00;0.62;0.00;0.00;0.62;4.97;3.00;;;20.10;25.20;;;;;;2245406;61;20593;-69
2021/11/28 03:33:07;0.00;0.00;0.62;0.00;0.00;0.62;4.20;3.07;;;20.00;25.20;;;;;;2244841;61;20410;-69
2021/11/28 03:36:13;0.00;0.00;0.62;0.00;0.00;0.62;6.30;3.47;;;20.00;25.20;;;;;;2245595;61;20670;-69
2021/11/28 03:39:00;0.00;0.00;0.62;0.00;0.00;0.62;9.13;4.10;;;20.00;25.10;;;;;;2247415;61;20576;-68
2021/11/28 03:41:48;0.00;0.00;0.62;0.00;0.00;0.62;3.13;2.80;;;19.90;25.00;;;;;;2245254;61;20409;-69
2021/11/28 03:44:36;0.00;0.00;0.62;0.00;0.00;0.62;3.93;3.00;;;19.90;25.10;;;;;;2244834;61;20385;-69
2021/11/28 03:47:31;0.00;0.00;0.62;0.00;0.00;0.62;3.07;2.50;;;19.80;25.10;;;;;;2244409;61;20522;-69
2021/11/28 03:50:20;0.00;0.00;0.62;0.00;0.00;0.62;4.73;2.73;;;19.80;25.20;;;;;;2245114;61;20374;-69
2021/11/28 03:53:08;0.00;0.00;0.62;0.00;0.00;0.62;5.40;3.83;;;19.80;25.20;;;;;;2245211;61;20660;-69
2021/11/28 03:55:54;0.00;0.00;0.62;0.00;0.00;0.62;4.40;3.03;;;19.80;25.30;;;;;;2245020;61;20366;-68
2021/11/28 03:58:40;0.00;0.00;0.62;0.00;0.00;0.62;3.33;2.67;;;19.70;25.20;;;;;;2244985;61;20357;-69
2021/11/28 04:01:26;0.00;0.00;0.62;0.00;0.00;0.62;4.53;3.03;;;19.70;25.20;;;;;;2244026;61;20796;-68
2021/11/28 04:04:12;0.00;0.00;0.62;0.00;0.00;0.62;4.17;3.10;;;19.70;25.20;;;;;;2245295;61;20409;-67
2021/11/28 04:07:33;0.00;0.00;0.62;0.00;0.00;0.62;4.30;2.90;;;19.70;25.30;;;;;;2245192;61;20466;-68
2021/11/28 04:10:18;0.00;0.00;0.62;0.00;0.00;0.62;4.17;3.00;;;19.70;25.20;;;;;;2244409;61;20364;-68
2021/11/28 04:13:03;0.00;0.00;0.62;0.00;0.00;0.62;4.70;3.53;;;19.70;25.30;;;;;;2245513;61;20631;-69
2021/11/28 04:15:48;0.00;0.00;0.62;0.00;0.00;0.62;4.90;3.40;;;19.60;25.20;;;;;;2245969;61;20384;-69
2021/11/28 04:18:40;0.00;0.00;0.62;0.00;0.00;0.62;5.80;3.20;;;19.60;25.20;;;;;;2245870;61;20354;-69
2021/11/28 04:21:30;0.00;0.00;0.62;0.00;0.00;0.62;4.50;3.40;;;19.60;25.20;;;;;;2245406;61;20611;-69
2021/11/28 04:24:15;0.00;0.00;0.62;0.00;0.00;0.62;4.50;3.70;;;19.60;25.20;;;;;;2244917;61;20390;-69
2021/11/28 04:27:00;0.00;0.00;0.62;0.00;0.00;0.62;4.30;3.50;;;19.50;25.20;;;;;;2245764;61;20734;-69
2021/11/28 04:29:45;0.00;0.00;0.62;0.00;0.00;0.62;5.23;4.20;;;19.50;25.20;;;;;;2245527;61;20361;-69
2021/11/28 04:32:31;0.00;0.00;0.62;0.00;0.00;0.62;5.10;3.80;;;19.50;25.20;;;;;;2245061;61;20452;-67
2021/11/28 04:35:17;0.00;0.00;0.62;0.00;0.00;0.62;3.57;3.20;;;19.50;25.20;;;;;;2245850;61;20365;-68
2021/11/28 04:38:04;0.00;0.00;0.62;0.00;0.00;0.62;4.07;3.60;;;19.50;25.20;;;;;;2245588;61;20579;-69
2021/11/28 04:40:49;0.00;0.00;0.62;0.00;0.00;0.62;6.67;3.63;;;19.50;25.20;;;;;;2245734;61;20393;-67
2021/11/28 04:43:34;0.00;0.00;0.62;0.00;0.00;0.62;5.07;3.70;;;19.50;25.20;;;;;;2245227;61;20470;-68
2021/11/28 04:46:19;0.00;0.00;0.62;0.00;0.00;0.62;5.50;4.17;;;19.50;25.20;;;;;;2245096;61;20365;-68
2021/11/28 04:49:04;0.00;0.00;0.62;0.00;0.00;0.62;3.50;3.17;;;19.40;25.10;;;;;;2245491;61;20433;-68
2021/11/28 04:51:53;0.00;0.00;0.62;0.00;0.00;0.62;4.90;3.80;;;19.40;25.10;;;;;;2245477;61;20389;-69
2021/11/28 04:54:42;0.00;0.00;0.62;0.00;0.00;0.62;4.00;3.53;;;19.40;25.10;;;;;;2245087;61;20369;-69
2021/11/28 04:57:28;0.00;0.00;0.62;0.00;0.00;0.62;4.00;3.60;;;19.40;25.10;;;;;;2242703;61;20373;-68
2021/11/28 05:00:17;0.00;0.00;0.62;0.00;0.00;0.62;4.47;3.40;;;19.40;25.20;;;;;;2242748;61;20710;-69
2021/11/28 05:03:14;0.00;0.00;0.62;0.00;0.00;0.62;4.40;3.20;;;19.30;25.10;;;;;;2245689;61;20369;-68
2021/11/28 05:06:20;0.00;0.00;0.62;0.00;0.00;0.62;4.70;2.80;;;19.40;25.20;;;;;;2245971;61;20365;-69
2021/11/28 05:09:23;0.00;0.00;0.62;0.00;0.00;0.62;6.50;3.63;;;19.30;25.10;;;;;;2245302;61;20401;-69
2021/11/28 05:12:10;0.00;0.00;0.62;0.00;0.00;0.62;5.10;3.00;;;19.30;25.10;;;;;;2245401;61;20765;-68
2021/11/28 05:14:57;0.00;0.00;0.62;0.00;0.00;0.62;5.03;3.03;;;19.30;25.10;;;;;;2245623;61;20374;-67
2021/11/28 05:17:43;0.00;0.00;0.62;0.00;0.00;0.62;4.30;3.10;;;19.30;25.10;;;;;;2245632;61;20722;-68
2021/11/28 05:20:30;0.00;0.00;0.62;0.00;0.00;0.62;4.13;3.17;;;19.20;25.10;;;;;;2245142;61;20789;-69
2021/11/28 05:23:15;0.00;0.00;0.62;0.00;0.00;0.62;4.13;3.20;;;19.20;25.00;;;;;;2245008;61;20517;-68
2021/11/28 05:26:00;0.00;0.00;0.62;0.00;0.00;0.62;5.67;3.80;;;19.20;25.10;;;;;;2245869;61;20745;-69
2021/11/28 05:28:47;0.00;0.00;0.62;0.00;0.00;0.62;4.03;3.20;;;19.20;25.10;;;;;;2245273;61;20429;-69
2021/11/28 05:31:32;0.00;0.00;0.62;0.00;0.00;0.62;4.27;3.50;;;19.20;25.10;;;;;;2244960;61;20389;-69
2021/11/28 05:34:36;0.00;0.00;0.62;0.00;0.00;0.62;6.20;3.67;;;19.20;25.10;;;;;;2245844;61;20362;-69
2021/11/28 05:37:41;0.00;0.00;0.62;0.00;0.00;0.62;4.87;3.50;;;19.20;25.10;;;;;;2245192;61;20398;-69
2021/11/28 05:40:13;0.00;0.00;0.62;0.00;0.00;0.62;4.27;3.43;;;19.10;25.00;;;;;;2245412;61;20354;-69
2021/11/28 05:42:44;0.00;0.00;0.62;0.00;0.00;0.62;3.70;3.03;;;19.10;25.00;;;;;;2245255;61;20366;-69
2021/11/28 05:45:32;0.00;0.00;0.62;0.00;0.00;0.62;4.73;3.43;;;19.10;25.00;;;;;;2244859;61;20662;-69
2021/11/28 05:48:42;0.00;0.00;0.62;0.00;0.00;0.62;5.43;3.90;;;19.10;25.00;;;;;;2245647;61;20401;-69
2021/11/28 05:51:37;0.00;0.00;0.62;0.00;0.00;0.62;3.27;2.90;;;19.10;25.00;;;;;;2245370;61;20385;-68
2021/11/28 05:54:22;0.00;0.00;0.62;0.00;0.00;0.62;5.23;3.47;;;19.10;25.00;;;;;;2244958;61;20370;-68
2021/11/28 05:57:07;0.00;0.00;0.62;0.00;0.00;0.62;4.00;3.10;;;19.10;25.00;;;;;;2245483;61;20478;-69
2021/11/28 05:59:52;0.00;0.00;0.62;0.00;0.00;0.62;4.33;3.43;;;19.10;25.00;;;;;;2244610;61;20778;-68
2021/11/28 06:02:39;0.00;0.00;0.62;0.00;0.00;0.62;4.50;3.30;;;19.10;25.00;;;;;;2245862;61;20443;-69
2021/11/28 06:05:46;0.00;0.00;0.62;0.00;0.00;0.62;5.10;3.20;;;19.00;25.00;;;;;;2245858;61;20437;-68
2021/11/28 06:08:52;0.00;0.00;0.62;0.00;0.00;0.62;4.57;3.37;;;19.00;25.00;;;;;;2245007;61;20421;-68
2021/11/28 06:11:38;0.00;0.00;0.62;0.00;0.00;0.62;5.07;3.70;;;19.00;24.90;;;;;;2245456;61;20385;-68
2021/11/28 06:14:23;0.00;0.00;0.62;0.00;0.00;0.62;5.80;3.80;;;19.00;25.00;;;;;;2245527;61;20582;-69
2021/11/28 06:17:31;0.00;0.00;0.62;0.00;0.00;0.62;4.67;3.10;;;19.00;25.00;;;;;;2245976;61;20429;-68
2021/11/28 06:20:37;0.00;0.00;0.62;0.00;0.00;0.62;5.23;3.70;;;19.00;25.00;;;;;;2245516;61;20459;-69
2021/11/28 06:23:30;0.00;0.00;0.62;0.00;0.00;0.62;3.80;2.77;;;19.00;25.00;;;;;;2244623;61;20398;-68
2021/11/28 06:26:16;0.00;0.00;0.62;0.00;0.00;0.62;5.30;3.40;;;18.90;24.90;;;;;;2245427;61;20354;-68
2021/11/28 06:29:02;0.00;0.00;0.62;0.00;0.00;0.62;4.30;3.17;;;18.90;24.90;;;;;;2245215;61;20639;-67
2021/11/28 06:31:47;0.00;0.00;0.62;0.00;0.00;0.62;4.53;2.73;;;18.90;25.00;;;;;;2245456;61;20409;-69
2021/11/28 06:34:41;0.00;0.00;0.62;0.00;0.00;0.62;4.47;3.07;;;18.90;24.90;;;;;;2245474;61;20490;-68
2021/11/28 06:38:02;0.00;0.00;0.62;0.00;0.00;0.62;2.87;2.20;;;18.90;25.00;;;;;;2245195;61;20614;-69
2021/11/28 06:41:06;0.00;0.00;0.62;0.00;0.00;0.62;4.17;2.50;;;18.90;24.90;;;;;;2245642;61;20409;-68
2021/11/28 06:43:51;0.00;0.00;0.62;0.00;0.00;0.62;4.43;2.70;;;18.90;25.00;;;;;;2245153;61;20405;-69
2021/11/28 06:46:36;0.00;0.00;0.62;0.00;0.00;0.62;3.93;2.50;;;18.90;24.90;;;;;;2245542;61;20353;-65
2021/11/28 06:49:26;0.00;0.00;0.62;0.00;0.00;0.62;4.60;2.60;;;18.90;24.90;;;;;;2244948;61;20397;-69
2021/11/28 06:52:30;0.00;0.00;0.62;0.00;0.00;0.62;3.77;2.30;;;18.80;24.90;;;;;;2245145;61;20393;-70
2021/11/28 06:55:35;0.00;0.00;0.62;0.00;0.00;0.62;3.00;2.27;;;18.80;24.90;;;;;;2245751;61;20364;-70
2021/11/28 06:58:55;0.00;0.00;0.62;0.00;0.00;0.62;4.40;2.97;;;18.80;24.90;;;;;;2244693;61;20370;-72
2021/11/28 07:01:40;0.00;0.00;0.62;0.00;0.00;0.62;4.57;2.63;;;18.80;24.90;;;;;;2245410;61;20604;-70
2021/11/28 07:04:44;0.00;0.00;0.62;0.00;0.00;0.62;5.93;2.70;;;18.80;24.90;;;;;;2245445;61;20401;-67
2021/11/28 07:07:50;0.00;0.00;0.62;0.00;0.00;0.62;4.33;2.37;;;18.70;24.90;;;;;;2244626;61;20459;-66
2021/11/28 07:10:39;0.00;0.00;0.62;0.00;0.00;0.62;3.23;2.80;;;18.70;24.90;;;;;;2245250;61;20397;-72
2021/11/28 07:13:31;0.00;0.00;0.62;0.00;0.00;0.62;3.80;2.20;;;18.70;25.00;;;;;;2245301;61;20389;-74
2021/11/28 07:16:17;0.00;0.00;0.62;0.00;0.00;0.62;2.70;2.10;;;18.70;25.00;;;;;;2245531;61;20390;-73
2021/11/28 07:19:04;0.00;0.00;0.62;0.00;0.00;0.62;3.33;2.40;;;18.70;25.00;;;;;;2247530;61;20382;-70
2021/11/28 07:22:18;0.00;0.00;0.62;0.00;0.00;0.62;4.70;2.40;;;18.70;24.90;;;;;;2245177;61;20726;-69
2021/11/28 07:25:08;0.00;0.00;0.62;0.00;0.00;0.62;2.60;1.83;;;18.60;24.90;;;;;;2245404;61;20389;-69
2021/11/28 07:28:01;0.00;0.00;0.62;0.00;0.00;0.62;3.17;2.30;;;18.70;24.90;;;;;;2245519;61;20469;-69
2021/11/28 07:30:49;0.00;0.00;0.62;0.00;0.00;0.62;3.03;2.60;;;18.60;24.80;;;;;;2248466;61;20789;-69
2021/11/28 07:34:07;0.00;0.00;0.62;0.00;0.00;0.62;4.50;2.30;;;18.60;24.90;;;;;;2245617;61;20398;-69
2021/11/28 07:37:12;0.00;0.00;0.62;0.00;0.00;0.62;2.67;2.27;;;18.60;24.90;;;;;;2248427;61;20384;-69
2021/11/28 07:39:59;0.00;0.00;0.62;0.00;0.00;0.62;4.00;2.00;;;18.60;24.90;;;;;;2247953;61;20354;-69
2021/11/28 07:42:46;0.00;0.00;0.62;0.00;0.00;0.62;3.33;2.20;;;18.60;24.90;;;;;;2247838;61;20761;-68
2021/11/28 07:46:12;0.00;0.00;0.62;0.00;0.00;0.62;4.33;1.87;;;18.60;25.50;;;;;;2248845;61;20420;-70
2021/11/28 07:49:19;0.00;0.00;0.62;0.00;0.00;0.62;5.63;2.23;;;18.60;24.90;;;;;;2249139;61;20668;-65
2021/11/28 07:52:06;0.00;0.00;0.62;0.00;0.00;0.62;3.03;2.37;;;18.60;25.00;;;;;;2245698;61;20388;-68
2021/11/28 07:54:52;0.00;0.00;0.62;0.00;0.00;0.62;7.33;2.43;;;18.60;25.00;;;;;;2248491;61;20424;-68
2021/11/28 07:58:16;0.00;0.00;0.62;0.00;0.00;0.62;4.87;2.13;;;18.60;25.00;;;;;;2248564;61;20446;-70
2021/11/28 08:01:17;0.00;0.00;0.62;0.00;0.00;0.62;3.17;2.07;;;18.60;25.00;;;;;;2249257;61;20449;-68
2021/11/28 08:04:03;0.00;0.00;0.62;0.00;0.00;0.62;3.60;1.90;;;18.60;25.00;;;;;;2248458;61;20733;-69
2021/11/28 08:07:08;0.00;0.00;0.62;0.00;0.00;0.62;4.00;1.80;;;18.60;25.10;;;;;;2245540;61;20385;-69
2021/11/28 08:10:18;0.00;0.00;0.62;0.00;0.00;0.62;3.20;1.77;;;18.60;25.10;;;;;;2245596;61;20370;-68
2021/11/28 08:13:04;0.00;0.00;0.62;0.00;0.00;0.62;2.77;1.67;;;18.60;25.10;;;;;;2245588;61;20397;-69
2021/11/28 08:15:50;0.00;0.00;0.62;0.00;0.00;0.62;3.00;2.13;;;18.60;25.10;;;;;;2246350;61;20405;-70
2021/11/28 08:18:39;0.00;0.00;0.62;0.00;0.00;0.62;3.40;2.00;;;18.60;25.10;;;;;;2245837;61;20365;-70
2021/11/28 08:21:27;0.00;0.00;0.62;0.00;0.00;0.62;2.27;1.67;;;18.60;25.10;;;;;;2245073;61;20385;-70
2021/11/28 08:24:13;0.00;0.00;0.62;0.00;0.00;0.62;3.10;1.87;;;18.60;25.10;;;;;;2245978;61;20406;-70
2021/11/28 08:26:59;0.00;0.00;0.62;0.00;0.00;0.62;3.20;1.93;;;18.60;25.20;;;;;;2246125;61;20357;-70
2021/11/28 08:29:45;0.00;0.00;0.62;0.00;0.00;0.62;2.23;1.70;;;18.70;25.20;;;;;;2245610;61;20445;-69
2021/11/28 08:32:54;0.00;0.00;0.62;0.00;0.00;0.62;2.60;1.90;;;18.70;25.20;;;;;;2245904;61;20700;-70
2021/11/28 08:36:20;0.00;0.00;0.62;0.00;0.00;0.62;2.50;1.30;;;18.70;25.20;;;;;;2248604;61;20361;-70
2021/11/28 08:39:06;0.00;0.00;0.62;0.00;0.00;0.62;1.93;1.50;;;18.70;25.20;;;;;;2245506;61;20575;-70
2021/11/28 08:41:52;0.00;0.00;0.62;0.00;0.00;0.62;2.00;1.40;;;18.70;25.20;;;;;;2246028;61;20613;-70
2021/11/28 08:44:38;0.00;0.00;0.62;0.00;0.00;0.62;1.97;1.67;;;18.70;25.20;;;;;;2245102;61;20785;-69
2021/11/28 08:47:23;0.00;0.00;0.62;0.00;0.00;0.62;2.47;1.70;;;18.70;25.20;;;;;;2246090;61;20362;-69
2021/11/28 08:50:11;0.00;0.00;0.62;0.00;0.00;0.62;1.80;1.40;;;18.80;25.30;;;;;;2245419;61;20765;-69
2021/11/28 08:52:59;0.00;0.00;0.62;0.00;0.00;0.62;2.20;1.50;;;18.80;25.30;;;;;;2246180;61;20733;-69
2021/11/28 08:55:44;0.00;0.00;0.62;0.00;0.00;0.62;1.87;1.40;;;18.80;25.30;;;;;;2246051;61;20362;-69
2021/11/28 08:58:30;0.00;0.00;0.62;0.00;0.00;0.62;2.13;1.50;;;18.80;25.30;;;;;;2245282;61;20745;-70
2021/11/28 09:01:16;0.00;0.00;0.62;0.00;0.00;0.62;2.20;1.40;;;18.80;25.30;;;;;;2245825;61;20408;-70
2021/11/28 09:04:02;0.00;0.00;0.62;0.00;0.00;0.62;2.37;1.60;;;18.80;25.30;;;;;;2246010;61;20590;-70
2021/11/28 09:06:47;0.00;0.00;0.62;0.00;0.00;0.62;2.20;1.43;;;18.80;25.30;;;;;;2245562;61;20357;-69
2021/11/28 09:09:35;0.00;0.00;0.62;0.00;0.00;0.62;1.80;1.40;;;18.80;25.40;;;;;;2245810;61;20420;-70
2021/11/28 09:12:21;0.00;0.00;0.62;0.00;0.00;0.62;2.00;1.40;;;18.80;25.30;;;;;;2245299;61;20385;-70
2021/11/28 09:15:07;0.00;0.00;0.62;0.00;0.00;0.62;2.30;1.53;;;18.80;25.20;;;;;;2246164;61;20426;-70
2021/11/28 09:17:58;0.00;0.00;0.62;0.00;0.00;0.62;2.07;1.47;;;18.90;25.30;;;;;;2245806;61;20411;-70
2021/11/28 09:20:49;0.00;0.00;0.62;0.00;0.00;0.62;1.50;1.00;;;18.90;25.30;;;;;;2244779;61;20381;-70
2021/11/28 09:26:41;0.00;0.00;0.62;0.00;0.00;0.62;1.67;1.10;;;18.90;25.30;;;;;;2245862;61;20361;-70
2021/11/28 09:29:27;0.00;0.00;0.62;0.00;0.00;0.62;1.60;1.03;;;18.90;25.30;;;;;;2245985;61;20401;-69
2021/11/28 09:32:15;0.00;0.00;0.62;0.00;0.00;0.62;2.37;1.10;;;18.90;25.30;;;;;;2245664;61;20745;-69
2021/11/28 09:35:01;0.00;0.00;0.62;0.00;0.00;0.62;1.50;1.20;;;18.90;25.30;;;;;;2245347;61;20394;-70
2021/11/28 09:37:47;0.00;0.00;0.62;0.00;0.00;0.62;1.83;1.20;;;18.90;25.30;;;;;;2245817;61;20430;-69
2021/11/28 09:40:33;0.00;0.00;0.62;0.00;0.00;0.62;1.60;1.10;;;18.90;25.30;;;;;;2245635;61;20478;-70
2021/11/28 09:43:25;0.00;0.00;0.62;0.00;0.00;0.62;1.83;1.27;;;19.00;25.40;;;;;;2245194;61;20361;-70
2021/11/28 09:46:13;0.00;0.00;0.62;0.00;0.00;0.62;1.83;1.10;;;19.00;25.40;;;;;;2245898;61;20433;-70
2021/11/28 09:49:02;0.00;0.00;0.62;0.00;0.00;0.62;1.87;1.13;;;19.00;25.40;;;;;;2245613;61;20377;-70
2021/11/28 09:51:49;0.00;0.00;0.62;0.00;0.00;0.62;1.77;1.07;;;19.00;25.40;;;;;;2245621;61;20429;-70
2021/11/28 09:54:39;0.00;0.00;0.62;0.00;0.00;0.62;1.73;0.90;;;19.00;25.40;;;;;;2245600;61;20825;-69
2021/11/28 09:57:26;0.00;0.00;0.62;0.00;0.00;0.62;2.00;1.20;;;19.00;25.40;;;;;;2245260;61;20398;-70
2021/11/28 10:00:16;0.00;0.00;0.62;0.00;0.00;0.62;1.97;1.30;;;19.00;25.40;;;;;;2245674;61;20358;-70
2021/11/28 10:03:03;0.00;0.00;0.62;0.00;0.00;0.62;1.60;1.00;;;19.00;25.40;;;;;;2245702;61;20362;-70
2021/11/28 10:05:51;0.00;0.00;0.62;0.00;0.00;0.62;2.17;1.37;;;19.10;25.50;;;;;;2245312;61;20401;-70
2021/11/28 10:08:38;0.00;0.00;0.62;0.00;0.00;0.62;2.17;1.20;;;19.10;25.40;;;;;;2245646;61;20405;-70
2021/11/28 10:12:08;0.00;0.00;0.62;0.00;0.00;0.62;1.73;1.13;;;19.10;25.50;;;;;;2244932;61;20631;-69
2021/11/28 10:14:55;0.00;0.00;0.62;0.00;0.00;0.62;1.87;1.07;;;19.10;25.50;;;;;;2245725;61;20396;-69
2021/11/28 10:17:43;0.00;0.00;0.62;0.00;0.00;0.62;1.60;1.00;;;19.10;25.40;;;;;;2245777;61;20419;-69
2021/11/28 10:20:29;0.00;0.00;0.62;0.00;0.00;0.62;1.50;1.00;;;19.10;25.40;;;;;;2244990;61;20365;-70
2021/11/28 10:23:15;0.00;0.00;0.62;0.00;0.00;0.62;1.80;1.20;;;19.10;25.40;;;;;;2245625;61;20365;-70
2021/11/28 10:26:14;0.00;0.00;0.62;0.00;0.00;0.62;2.07;1.33;;;19.10;25.40;;;;;;2245490;61;20494;-70
2021/11/28 10:29:09;0.00;0.00;0.62;0.00;0.00;0.62;1.70;1.20;;;19.20;25.50;;;;;;2245976;61;20393;-70
2021/11/28 10:31:57;0.00;0.00;0.62;0.00;0.00;0.62;1.50;0.90;;;19.20;25.50;;;;;;2245608;61;20377;-69
2021/11/28 10:34:49;0.00;0.00;0.62;0.00;0.00;0.62;1.93;1.17;;;19.20;25.50;;;;;;2245187;61;20483;-69
2021/11/28 10:37:40;0.00;0.00;0.62;0.00;0.00;0.62;1.47;1.10;;;19.20;25.50;;;;;;2245648;61;20366;-70
2021/11/28 10:40:29;0.00;0.00;0.62;0.00;0.00;0.62;1.57;0.90;;;19.20;25.50;;;;;;2245503;61;20354;-67
2021/11/28 10:43:17;0.00;0.00;0.62;0.00;0.00;0.62;1.73;1.20;;;19.20;25.50;;;;;;2245392;61;20398;-70
2021/11/28 10:46:03;0.00;0.00;0.62;0.00;0.00;0.62;1.87;1.00;;;19.20;25.50;;;;;;2245676;61;20630;-70
2021/11/28 10:49:02;0.00;0.00;0.62;0.00;0.00;0.62;1.50;1.00;;;19.20;25.50;;;;;;2245009;61;20812;-70
2021/11/28 10:51:52;0.00;0.00;0.62;0.00;0.00;0.62;1.50;1.00;;;19.20;25.50;;;;;;2245548;61;20381;-69
2021/11/28 10:54:45;0.00;0.00;0.62;0.00;0.00;0.62;1.90;1.30;;;19.30;25.50;;;;;;2245670;61;20370;-68
2021/11/28 10:57:30;0.00;0.00;0.62;0.00;0.00;0.62;3.27;1.20;;;19.30;25.50;;;;;;2245141;61;20587;-70
2021/11/28 11:00:16;0.00;0.00;0.62;0.00;0.00;0.62;2.30;1.10;;;19.30;25.50;;;;;;2245420;61;20398;-69
2021/11/28 11:03:19;0.00;0.00;0.62;0.00;0.00;0.62;2.10;1.10;;;19.30;25.50;;;;;;2245353;61;20369;-70
2021/11/28 11:06:17;0.00;0.00;0.62;0.00;0.00;0.62;1.63;0.90;;;19.30;25.50;;;;;;2246263;61;20369;-70
2021/11/28 11:09:21;0.00;0.00;0.62;0.00;0.00;0.62;1.60;1.00;;;19.30;25.50;;;;;;2245443;61;20440;-70
2021/11/28 11:12:19;0.00;0.00;0.62;0.00;0.00;0.62;1.90;1.40;;;19.30;25.50;;;;;;2245133;61;20385;-68
2021/11/28 11:15:05;0.00;0.00;0.62;0.00;0.00;0.62;2.03;1.20;;;19.30;25.50;;;;;;2245659;61;20409;-69
2021/11/28 11:18:00;0.00;0.00;0.62;0.00;0.00;0.62;1.60;1.00;;;19.30;25.50;;;;;;2245226;61;20769;-68
2021/11/28 11:20:48;0.00;0.00;0.62;0.00;0.00;0.62;1.60;0.90;;;19.30;25.50;;;;;;2245681;61;20382;-68
2021/11/28 11:23:40;0.00;0.00;0.62;0.00;0.00;0.62;1.60;1.13;;;19.30;25.50;;;;;;2245802;61;20717;-68